createdAt,value
2023-01-19T00:00:33.062Z,33.90
2023-01-19T00:03:01.146Z,28.95
2023-01-19T00:05:29.184Z,30.60
2023-01-19T00:08:15.787Z,27.00
2023-01-19T00:10:46.729Z,22.50
2023-01-19T00:13:17.806Z,27.17
2023-01-19T00:15:46.088Z,27.70
2023-01-19T00:18:15.822Z,25.00
2023-01-19T00:20:46.605Z,22.38
2023-01-19T00:23:17.452Z,22.10
2023-01-19T00:25:46.087Z,26.80
2023-01-19T00:28:18.820Z,29.67
2023-01-19T00:30:48.772Z,19.75
2023-01-19T00:33:16.980Z,17.40
2023-01-19T00:35:45.367Z,29.23
2023-01-19T00:38:15.194Z,18.92
2023-01-19T00:40:43.198Z,19.50
2023-01-19T00:43:10.425Z,21.33
2023-01-19T00:45:39.777Z,23.63
2023-01-19T00:48:07.990Z,19.60
2023-01-19T00:50:36.376Z,20.38
2023-01-19T00:53:06.928Z,24.73
2023-01-19T00:55:36.330Z,25.15
2023-01-19T00:58:05.728Z,26.08
2023-01-19T01:00:34.032Z,23.05
2023-01-19T01:03:04.184Z,21.42
2023-01-19T01:05:32.614Z,20.38
2023-01-19T01:08:00.653Z,25.27
2023-01-19T01:10:30.447Z,18.30
2023-01-19T01:13:21.305Z,19.45
2023-01-19T01:15:52.751Z,18.90
2023-01-19T01:18:23.915Z,22.33
2023-01-19T01:20:56.045Z,18.85
2023-01-19T01:23:24.421Z,22.42
2023-01-19T01:25:53.862Z,17.85
2023-01-19T01:28:23.311Z,21.92
2023-01-19T01:30:56.793Z,19.55
2023-01-19T01:33:40.454Z,23.92
2023-01-19T01:36:12.703Z,16.48
2023-01-19T01:38:41.213Z,25.08
2023-01-19T01:41:11.724Z,18.50
2023-01-19T01:43:47.846Z,22.80
2023-01-19T01:46:19.787Z,18.27
2023-01-19T01:48:56.004Z,20.30
2023-01-19T01:51:32.773Z,16.23
2023-01-19T01:54:14.234Z,22.58
2023-01-19T01:56:47.872Z,22.38
2023-01-19T01:59:28.691Z,18.55
2023-01-19T02:02:18.780Z,24.02
2023-01-19T02:04:54.665Z,19.50
2023-01-19T02:07:56.662Z,15.93
2023-01-19T02:10:42.509Z,17.10
2023-01-19T02:13:21.658Z,20.42
2023-01-19T02:15:53.722Z,18.45
2023-01-19T02:18:26.657Z,27.13
2023-01-19T02:21:05.630Z,20.38
2023-01-19T02:23:47.062Z,14.35
2023-01-19T02:26:20.388Z,22.02
2023-01-19T02:28:53.634Z,16.27
2023-01-19T02:31:23.724Z,16.90
2023-01-19T02:33:54.663Z,15.30
2023-01-19T02:36:28.627Z,16.30
2023-01-19T02:39:03.685Z,14.77
2023-01-19T02:41:40.180Z,16.65
2023-01-19T02:44:10.403Z,22.02
2023-01-19T02:46:39.730Z,16.30
2023-01-19T02:49:07.748Z,17.88
2023-01-19T02:51:36.568Z,13.45
2023-01-19T02:54:42.081Z,17.00
2023-01-19T02:57:37.630Z,16.08
2023-01-19T03:00:32.575Z,12.85
2023-01-19T03:03:25.594Z,16.33
2023-01-19T03:06:03.961Z,16.83
2023-01-19T03:08:44.876Z,20.95
2023-01-19T03:11:17.651Z,22.10
2023-01-19T03:13:54.609Z,16.88
2023-01-19T03:16:30.558Z,14.73
2023-01-19T03:19:12.720Z,18.60
2023-01-19T03:21:48.406Z,14.25
2023-01-19T03:24:20.165Z,16.83
2023-01-19T03:26:57.745Z,16.45
2023-01-19T03:29:32.667Z,15.27
2023-01-19T03:32:07.331Z,18.73
2023-01-19T03:34:37.809Z,19.75
2023-01-19T03:37:08.604Z,14.77
2023-01-19T03:39:36.981Z,16.70
2023-01-19T03:42:12.791Z,15.57
2023-01-19T03:44:44.449Z,25.33
2023-01-19T03:47:17.596Z,20.58
2023-01-19T03:49:48.900Z,20.10
2023-01-19T03:52:18.564Z,19.10
2023-01-19T03:54:46.644Z,15.55
2023-01-19T03:57:17.614Z,18.73
2023-01-19T03:59:45.632Z,16.40
2023-01-19T04:02:13.673Z,19.52
2023-01-19T04:04:43.568Z,16.15
2023-01-19T04:07:13.538Z,18.92
2023-01-19T04:09:41.949Z,18.42
2023-01-19T04:12:13.658Z,14.18
2023-01-19T04:14:43.002Z,15.95
2023-01-19T04:17:11.031Z,17.60
2023-01-19T04:19:39.056Z,19.77
2023-01-19T04:22:07.085Z,18.00
2023-01-19T04:24:35.236Z,20.45
2023-01-19T04:27:03.417Z,23.42
2023-01-19T04:29:31.530Z,16.15
2023-01-19T04:32:00.948Z,18.88
2023-01-19T04:34:31.539Z,16.73
2023-01-19T04:37:01.532Z,15.20
2023-01-19T04:39:29.526Z,18.45
2023-01-19T04:41:57.790Z,20.05
2023-01-19T04:44:27.541Z,23.05
2023-01-19T04:46:55.950Z,20.30
2023-01-19T04:49:25.607Z,18.85
2023-01-19T04:51:56.481Z,13.82
2023-01-19T04:54:24.625Z,18.70
2023-01-19T04:56:52.839Z,16.00
2023-01-19T04:59:23.473Z,13.07
2023-01-19T05:01:51.600Z,20.85
2023-01-19T05:04:19.764Z,24.65
2023-01-19T05:06:49.986Z,17.98
2023-01-19T05:09:18.039Z,23.25
2023-01-19T05:11:47.662Z,16.20
2023-01-19T05:14:17.515Z,21.05
2023-01-19T05:16:45.512Z,19.73
2023-01-19T05:19:19.523Z,15.70
2023-01-19T05:21:48.923Z,19.02
2023-01-19T05:24:16.935Z,15.90
2023-01-19T05:26:45.008Z,14.52
2023-01-19T05:29:15.455Z,17.20
2023-01-19T05:31:43.635Z,16.02
2023-01-19T05:34:14.473Z,17.08
2023-01-19T05:36:45.442Z,13.98
2023-01-19T05:39:15.212Z,15.85
2023-01-19T05:41:44.691Z,15.27
2023-01-19T05:44:15.432Z,15.77
2023-01-19T05:46:43.461Z,14.38
2023-01-19T05:49:13.526Z,18.75
2023-01-19T05:51:45.354Z,15.85
2023-01-19T05:54:16.297Z,18.35
2023-01-19T05:56:44.587Z,15.70
2023-01-19T05:59:12.968Z,14.07
2023-01-19T06:01:41.785Z,15.43
2023-01-19T06:04:09.842Z,19.98
2023-01-19T06:06:37.930Z,16.77
2023-01-19T06:09:07.824Z,14.32
2023-01-19T06:11:37.339Z,15.38
2023-01-19T06:14:05.483Z,14.98
2023-01-19T06:16:33.635Z,17.98
2023-01-19T06:19:01.897Z,18.92
2023-01-19T06:21:30.003Z,14.18
2023-01-19T06:23:57.984Z,20.25
2023-01-19T06:26:26.416Z,16.88
2023-01-19T06:28:56.364Z,17.77
2023-01-19T06:31:24.656Z,15.82
2023-01-19T06:33:52.796Z,20.35
2023-01-19T06:36:20.868Z,15.10
2023-01-19T06:38:48.887Z,17.10
2023-01-19T06:41:16.992Z,18.08
2023-01-19T06:43:45.003Z,19.45
2023-01-19T06:46:14.768Z,17.08
2023-01-19T06:48:42.797Z,16.00
2023-01-19T06:51:11.168Z,16.27
2023-01-19T06:53:39.565Z,21.80
2023-01-19T06:56:09.375Z,20.02
2023-01-19T06:58:37.709Z,20.83
2023-01-19T07:01:07.744Z,22.77
2023-01-19T07:03:38.561Z,27.10
2023-01-19T07:06:07.717Z,22.02
2023-01-19T07:08:37.277Z,21.40
2023-01-19T07:11:26.404Z,20.00
2023-01-19T07:13:57.169Z,21.20
2023-01-19T07:16:25.386Z,19.25
2023-01-19T07:18:54.878Z,26.13
2023-01-19T07:21:23.571Z,21.95
2023-01-19T07:23:52.764Z,19.92
2023-01-19T07:26:21.812Z,27.63
2023-01-19T07:28:50.934Z,19.85
2023-01-19T07:31:20.038Z,23.20
2023-01-19T07:33:48.339Z,27.23
2023-01-19T07:36:17.781Z,22.08
2023-01-19T07:38:45.959Z,22.20
2023-01-19T07:41:14.018Z,25.77
2023-01-19T07:43:42.052Z,27.55
2023-01-19T07:46:10.146Z,19.50
2023-01-19T07:48:38.194Z,18.40
2023-01-19T07:51:10.990Z,28.67
2023-01-19T07:53:41.954Z,20.40
2023-01-19T07:56:10.833Z,22.10
2023-01-19T07:58:39.040Z,19.45
2023-01-19T08:01:09.346Z,18.65
2023-01-19T08:03:37.930Z,19.08
2023-01-19T08:06:07.453Z,21.25
2023-01-19T08:08:35.798Z,22.05
2023-01-19T08:11:05.603Z,26.67
2023-01-19T08:13:34.241Z,23.55
2023-01-19T08:16:02.716Z,21.50
2023-01-19T08:18:30.981Z,18.85
2023-01-19T08:21:00.687Z,18.80
2023-01-19T08:23:29.405Z,26.23
2023-01-19T08:25:57.759Z,17.70
2023-01-19T08:28:27.394Z,22.10
2023-01-19T08:30:55.619Z,20.08
2023-01-19T08:33:25.765Z,22.95
2023-01-19T08:35:55.186Z,25.15
2023-01-19T08:38:23.263Z,19.35
2023-01-19T08:40:52.030Z,20.50
2023-01-19T08:43:20.173Z,23.23
2023-01-19T08:45:53.291Z,22.75
2023-01-19T08:48:23.689Z,19.10
2023-01-19T08:50:53.616Z,21.38
2023-01-19T08:53:23.808Z,20.45
2023-01-19T08:55:57.359Z,18.13
2023-01-19T08:58:25.655Z,27.17
2023-01-19T09:00:55.307Z,15.52
2023-01-19T09:03:24.054Z,20.10
2023-01-19T09:05:52.402Z,19.45
2023-01-19T09:08:20.517Z,17.90
2023-01-19T09:10:51.174Z,13.57
2023-01-19T09:13:21.406Z,14.10
2023-01-19T09:15:50.349Z,21.95
2023-01-19T09:18:22.847Z,17.30
2023-01-19T09:20:52.124Z,11.50
2023-01-19T09:23:22.723Z,16.42
2023-01-19T09:25:59.430Z,16.40
2023-01-19T09:28:29.255Z,13.45
2023-01-19T09:30:58.372Z,16.02
2023-01-19T09:33:27.815Z,12.00
2023-01-19T09:35:57.400Z,15.38
2023-01-19T09:38:26.119Z,17.30
2023-01-19T09:40:57.194Z,11.52
2023-01-19T09:43:38.565Z,14.20
2023-01-19T09:46:13.599Z,12.75
2023-01-19T09:48:49.159Z,10.60
2023-01-19T09:51:22.690Z,13.63
2023-01-19T09:54:06.842Z,16.15
2023-01-19T09:56:35.153Z,10.02
2023-01-19T09:59:19.082Z,11.88
2023-01-19T10:02:08.083Z,12.80
2023-01-19T10:04:42.100Z,11.52
2023-01-19T10:07:26.057Z,8.30
2023-01-19T10:10:12.358Z,8.32
2023-01-19T10:13:01.393Z,11.55
2023-01-19T10:15:42.913Z,12.88
2023-01-19T10:18:18.763Z,11.18
2023-01-19T10:20:52.153Z,10.88
2023-01-19T10:23:44.086Z,12.05
2023-01-19T10:26:18.398Z,8.82
2023-01-19T10:28:51.511Z,10.63
2023-01-19T10:31:24.820Z,12.35
2023-01-19T10:33:54.308Z,11.80
2023-01-19T10:36:30.478Z,9.48
2023-01-19T10:38:59.676Z,10.32
2023-01-19T10:41:39.487Z,6.82
2023-01-19T10:44:09.420Z,11.70
2023-01-19T10:46:44.724Z,10.23
2023-01-19T10:49:28.314Z,8.10
2023-01-19T10:52:00.675Z,9.85
2023-01-19T10:54:32.668Z,9.15
2023-01-19T10:57:05.210Z,9.25
2023-01-19T10:59:38.137Z,8.98
2023-01-19T11:02:20.283Z,9.95
2023-01-19T11:04:51.383Z,6.60
2023-01-19T11:07:24.016Z,9.85
2023-01-19T11:10:23.988Z,9.30
2023-01-19T11:13:03.619Z,8.95
2023-01-19T11:15:36.535Z,15.55
2023-01-19T11:18:07.138Z,6.68
2023-01-19T11:20:53.611Z,9.18
2023-01-19T11:23:29.312Z,11.65
2023-01-19T11:26:01.519Z,12.20
2023-01-19T11:28:35.224Z,13.35
2023-01-19T11:31:19.065Z,8.80
2023-01-19T11:33:52.921Z,6.38
2023-01-19T11:36:25.403Z,9.90
2023-01-19T11:38:57.758Z,10.85
2023-01-19T11:41:29.687Z,10.15
2023-01-19T11:44:03.561Z,13.02
2023-01-19T11:46:36.192Z,13.25
2023-01-19T11:49:09.421Z,9.65
2023-01-19T11:51:47.517Z,9.55
2023-01-19T11:54:25.295Z,9.52
2023-01-19T11:56:55.560Z,11.45
2023-01-19T11:59:25.356Z,14.27
2023-01-19T12:01:58.474Z,6.72
2023-01-19T12:04:32.015Z,8.85
2023-01-19T12:07:07.480Z,11.00
2023-01-19T12:09:43.914Z,13.07
2023-01-19T12:12:25.005Z,9.50
2023-01-19T12:15:00.778Z,10.00
2023-01-19T12:17:35.169Z,14.00
2023-01-19T12:20:15.065Z,13.00
2023-01-19T12:22:56.208Z,9.68
2023-01-19T12:25:39.832Z,10.98
2023-01-19T12:28:14.857Z,7.65
2023-01-19T12:30:43.348Z,7.18
2023-01-19T12:33:35.944Z,14.60
2023-01-19T12:36:10.275Z,8.05
2023-01-19T12:38:52.871Z,9.75
2023-01-19T12:41:31.458Z,8.35
2023-01-19T12:44:34.054Z,10.45
2023-01-19T12:47:21.031Z,14.38
2023-01-19T12:49:52.597Z,8.13
2023-01-19T12:52:30.834Z,16.40
2023-01-19T12:55:05.083Z,10.73
2023-01-19T12:57:40.035Z,10.13
2023-01-19T13:00:32.177Z,7.90
2023-01-19T13:03:02.349Z,9.23
2023-01-19T13:05:53.551Z,13.02
2023-01-19T13:08:25.793Z,7.65
2023-01-19T13:11:23.793Z,11.20
2023-01-19T13:14:37.922Z,10.50
2023-01-19T13:17:30.681Z,7.70
2023-01-19T13:20:29.512Z,12.43
2023-01-19T13:23:25.694Z,8.55
2023-01-19T13:26:03.312Z,11.52
2023-01-19T13:28:43.201Z,10.82
2023-01-19T13:31:15.074Z,10.90
2023-01-19T13:33:52.813Z,11.35
2023-01-19T13:36:30.596Z,10.20
2023-01-19T13:39:02.747Z,11.27
2023-01-19T13:41:36.497Z,7.75
2023-01-19T13:44:14.146Z,9.50
2023-01-19T13:46:44.272Z,8.13
2023-01-19T13:49:22.151Z,9.20
2023-01-19T13:52:06.483Z,12.05
2023-01-19T13:54:34.661Z,10.98
2023-01-19T13:57:02.691Z,6.78
2023-01-19T13:59:30.789Z,11.85
2023-01-19T14:02:14.537Z,11.63
2023-01-19T14:04:42.798Z,9.20
2023-01-19T14:07:26.164Z,10.68
2023-01-19T14:10:06.236Z,10.57
2023-01-19T14:12:36.137Z,8.25
2023-01-19T14:15:13.992Z,12.85
2023-01-19T14:17:43.612Z,12.70
2023-01-19T14:20:37.132Z,13.27
2023-01-19T14:23:08.070Z,12.55
2023-01-19T14:25:39.377Z,10.18
2023-01-19T14:28:31.164Z,9.57
2023-01-19T14:31:04.752Z,9.43
2023-01-19T14:34:00.642Z,10.77
2023-01-19T14:36:41.444Z,10.15
2023-01-19T14:39:23.656Z,12.43
2023-01-19T14:41:55.267Z,7.43
2023-01-19T14:44:31.852Z,9.75
2023-01-19T14:47:01.588Z,11.40
2023-01-19T14:49:38.301Z,10.70
2023-01-19T14:52:23.862Z,10.27
2023-01-19T14:57:26.984Z,10.00
2023-01-19T15:00:09.136Z,11.57
2023-01-19T15:02:37.603Z,9.40
2023-01-19T15:05:08.910Z,10.63
2023-01-19T15:07:40.047Z,9.63
2023-01-19T15:10:36.858Z,11.30
2023-01-19T15:13:21.705Z,10.52
2023-01-19T15:15:51.040Z,6.70
2023-01-19T15:18:25.315Z,6.72
2023-01-19T15:21:02.571Z,12.68
2023-01-19T15:23:31.097Z,15.60
2023-01-19T15:26:02.701Z,12.55
2023-01-19T15:28:32.760Z,10.13
2023-01-19T15:31:01.767Z,15.95
2023-01-19T15:33:31.409Z,11.57
2023-01-19T15:36:01.288Z,11.75
2023-01-19T15:38:29.518Z,9.00
2023-01-19T15:40:58.663Z,11.70
2023-01-19T15:43:26.928Z,7.60
2023-01-19T15:46:02.302Z,11.15
2023-01-19T15:48:30.771Z,12.02
2023-01-19T15:51:00.827Z,13.95
2023-01-19T15:53:30.674Z,10.98
2023-01-19T15:55:59.009Z,13.55
2023-01-19T15:58:27.435Z,9.65
2023-01-19T16:00:59.022Z,11.13
2023-01-19T16:03:27.667Z,16.95
2023-01-19T16:05:55.741Z,11.82
2023-01-19T16:08:33.640Z,9.32
2023-01-19T16:11:19.315Z,13.18
2023-01-19T16:13:48.580Z,9.45
2023-01-19T16:16:20.627Z,9.48
2023-01-19T16:18:58.704Z,12.73
2023-01-19T16:21:26.973Z,11.73
2023-01-19T16:23:56.808Z,10.27
2023-01-19T16:26:30.131Z,17.73
2023-01-19T16:29:00.790Z,11.75
2023-01-19T16:31:29.826Z,15.48
2023-01-19T16:33:58.037Z,15.15
2023-01-19T16:36:28.800Z,11.02
2023-01-19T16:39:00.075Z,15.40
2023-01-19T16:41:28.866Z,9.07
2023-01-19T16:43:59.126Z,9.80
2023-01-19T16:46:29.859Z,7.53
2023-01-19T16:49:02.031Z,15.98
2023-01-19T16:51:30.929Z,8.45
2023-01-19T16:54:00.703Z,14.13
2023-01-19T16:56:29.040Z,17.85
2023-01-19T16:58:59.163Z,9.10
2023-01-19T17:01:30.840Z,11.10
2023-01-19T17:03:59.065Z,9.68
2023-01-19T17:06:28.786Z,7.50
2023-01-19T17:08:56.913Z,5.95
2023-01-19T17:11:28.521Z,10.63
2023-01-19T17:14:00.233Z,7.28
2023-01-19T17:16:32.096Z,7.13
2023-01-19T17:19:03.108Z,10.85
2023-01-19T17:21:31.658Z,6.72
2023-01-19T17:24:00.821Z,8.00
2023-01-19T17:26:31.401Z,5.03
2023-01-19T17:29:00.608Z,9.43
2023-01-19T17:31:29.876Z,12.32
2023-01-19T17:33:58.055Z,7.20
2023-01-19T17:36:28.100Z,11.90
2023-01-19T17:38:58.505Z,18.83
2023-01-19T17:41:30.832Z,11.07
2023-01-19T17:44:00.994Z,11.13
2023-01-19T17:46:30.513Z,12.48
2023-01-19T17:49:01.662Z,14.18
2023-01-19T17:51:31.224Z,9.27
2023-01-19T17:54:00.407Z,12.65
2023-01-19T17:56:36.651Z,11.38
2023-01-19T17:59:08.196Z,11.77
2023-01-19T18:01:40.347Z,13.60
2023-01-19T18:04:10.169Z,21.10
2023-01-19T18:06:39.227Z,19.33
2023-01-19T18:09:08.016Z,9.95
2023-01-19T18:11:37.724Z,9.85
2023-01-19T18:14:06.741Z,16.52
2023-01-19T18:16:35.960Z,13.68
2023-01-19T18:19:04.237Z,19.05
2023-01-19T18:21:32.527Z,16.35
2023-01-19T18:24:04.010Z,18.55
2023-01-19T18:26:34.878Z,10.52
2023-01-19T18:29:04.485Z,17.73
2023-01-19T18:31:32.703Z,23.80
2023-01-19T18:34:01.013Z,14.52
2023-01-19T18:36:32.065Z,13.65
2023-01-19T18:39:00.316Z,13.43
2023-01-19T18:41:30.655Z,11.85
2023-01-19T18:43:59.682Z,12.38
2023-01-19T18:46:29.325Z,13.93
2023-01-19T18:48:57.557Z,15.82
2023-01-19T18:51:34.396Z,17.08
2023-01-19T18:54:20.904Z,23.58
2023-01-19T18:57:04.358Z,19.77
2023-01-19T18:59:44.689Z,17.60
2023-01-19T19:02:39.465Z,15.55
2023-01-19T19:05:19.522Z,13.68
2023-01-19T19:07:52.715Z,9.18
2023-01-19T19:10:29.155Z,12.65
2023-01-19T19:13:11.501Z,17.83
2023-01-19T19:16:03.102Z,12.52
2023-01-19T19:18:42.394Z,17.40
2023-01-19T19:21:23.988Z,17.25
2023-01-19T19:23:58.559Z,15.55
2023-01-19T19:26:35.054Z,18.52
2023-01-19T19:29:11.082Z,14.85
2023-01-19T19:31:49.884Z,12.32
2023-01-19T19:34:31.040Z,15.05
2023-01-19T19:37:14.866Z,16.30
2023-01-19T19:42:46.099Z,45.97
2023-01-19T19:48:57.716Z,33.55
2023-01-19T19:52:43.829Z,23.77
2023-01-19T19:58:04.680Z,24.63
2023-01-19T20:00:33.123Z,19.42
2023-01-19T20:03:02.227Z,21.95
2023-01-19T20:05:30.815Z,19.02
2023-01-19T20:07:59.073Z,23.83
2023-01-19T20:10:27.388Z,16.00
2023-01-19T20:12:55.652Z,20.95
2023-01-19T20:15:25.406Z,18.67
2023-01-19T20:17:54.001Z,19.13
2023-01-19T20:20:22.574Z,25.70
2023-01-19T20:22:51.258Z,25.58
2023-01-19T20:25:19.867Z,25.88
2023-01-19T20:27:48.526Z,19.23
2023-01-19T20:30:17.484Z,26.17
2023-01-19T20:32:47.637Z,57.22
2023-01-19T20:35:16.513Z,43.65
2023-01-19T20:37:44.862Z,39.20
2023-01-19T20:40:13.515Z,25.67
2023-01-19T20:42:43.375Z,20.75
2023-01-19T20:45:12.730Z,24.35
2023-01-19T20:47:41.125Z,28.45
2023-01-19T20:50:12.874Z,19.77
2023-01-19T20:52:41.174Z,22.35
2023-01-19T20:55:10.476Z,36.40
2023-01-19T20:57:38.772Z,64.20
2023-01-19T21:00:08.654Z,40.40
2023-01-19T21:02:36.855Z,28.50
2023-01-19T21:05:05.749Z,33.63
2023-01-19T21:07:35.473Z,21.40
2023-01-19T21:10:03.897Z,20.98
2023-01-19T21:12:32.133Z,27.20
2023-01-19T21:15:00.461Z,32.75
2023-01-19T21:17:28.751Z,28.85
2023-01-19T21:19:57.024Z,28.63
2023-01-19T21:22:25.456Z,24.95
2023-01-19T21:24:55.113Z,24.25
2023-01-19T21:27:23.262Z,25.02
2023-01-19T21:29:51.494Z,44.10
2023-01-19T21:32:20.246Z,41.30
2023-01-19T21:34:48.577Z,51.90
2023-01-19T21:37:16.982Z,28.10
2023-01-19T21:39:45.306Z,26.75
2023-01-19T21:42:15.035Z,29.10
2023-01-19T21:44:43.210Z,26.42
2023-01-19T21:47:11.951Z,31.30
2023-01-19T21:49:40.370Z,28.42
2023-01-19T21:52:08.824Z,63.30
2023-01-19T21:54:37.092Z,179.63
2023-01-19T21:57:05.517Z,111.07
2023-01-19T21:59:35.253Z,37.47
2023-01-19T22:02:03.877Z,34.22
2023-01-19T22:04:32.292Z,34.15
2023-01-19T22:07:00.600Z,73.25
2023-01-19T22:09:28.783Z,112.13
2023-01-19T22:11:57.037Z,64.03
2023-01-19T22:14:25.402Z,64.38
2023-01-19T22:16:55.158Z,53.65
2023-01-19T22:19:23.685Z,49.63
2023-01-19T22:21:51.988Z,36.47
2023-01-19T22:24:20.313Z,45.90
2023-01-19T22:26:48.641Z,32.63
2023-01-19T22:29:17.079Z,63.13
2023-01-19T22:31:45.907Z,157.48
2023-01-19T22:34:17.230Z,62.97
2023-01-19T22:36:45.686Z,46.95
2023-01-19T22:39:14.797Z,42.50
2023-01-19T22:41:45.413Z,48.47
2023-01-19T22:44:15.926Z,33.63
2023-01-19T22:46:44.913Z,41.05
2023-01-19T22:49:18.578Z,53.35
2023-01-19T22:51:47.793Z,40.83
2023-01-19T22:54:16.389Z,43.83
2023-01-19T22:56:45.899Z,57.08
2023-01-19T22:59:14.552Z,35.80
2023-01-19T23:01:45.854Z,37.75
2023-01-19T23:04:17.640Z,29.25
2023-01-19T23:06:50.544Z,39.33
2023-01-19T23:09:19.920Z,39.90
2023-01-19T23:11:50.853Z,27.88
2023-01-19T23:14:21.905Z,28.83
2023-01-19T23:16:50.426Z,28.60
2023-01-19T23:19:20.609Z,27.63
2023-01-19T23:21:52.353Z,42.75
2023-01-19T23:24:20.699Z,38.50
2023-01-19T23:26:50.470Z,36.55
2023-01-19T23:29:19.790Z,30.92
2023-01-19T23:31:50.451Z,59.95
2023-01-19T23:34:20.344Z,34.58
2023-01-19T23:36:48.615Z,38.90
2023-01-19T23:39:20.304Z,35.13
2023-01-19T23:41:49.412Z,30.80
2023-01-19T23:44:18.706Z,35.17
2023-01-19T23:46:47.888Z,37.95
2023-01-19T23:49:17.125Z,32.97
2023-01-19T23:51:46.943Z,38.10
2023-01-19T23:54:15.198Z,38.78
2023-01-19T23:56:43.655Z,34.03
2023-01-19T23:59:14.876Z,28.98
